map of BKO home
BKO - Airport
Location
City:  Bamako, Bamako, Mali
Name:Modibo Keita International Airport
Old (Alt.):Bamako SÚnou International Airport
ICAO:GABS
IATA:BKO

Details
Type:Airport (Aerodrome, Airfield)
Use:Public/Civil, Military, International (customs port of entry)
Latitude:12░32'01"N (12.533544)
Longitude:7░57'00"W (-7.949943)
Datum:WGS 1984
Elevation:1247 ft (380 m)
Variation:4.12░W (WMM2015 magnetic declination)
0.10░ annual change
Runways:1
Longest:8879 × 148 ft (2706 × 45 m), paved

Time
Time Zone:UTC+0
Local Time:

Weather
METAR:GABS 230830Z 23011KT 9999 FEW030 30/22 Q1013 NOSIG
TAF:GABS 221700Z 2218/2324 20006KT 9999 SCT030
TEMPO 2218/2306 TSRA BKN030 FEW040CB PROB40
TEMPO 2316/2324 10015G35KT 4000 TSRA BKN030 FEW040CB

Related Locations
Nearby:
Farthest:MTV: 12146 mi / 19547 km
Ablow [Mota Lava], Mota Lava Island, TOB, VU

Find:

   beyond  
but within

Other Information
Maps:
NOTAMs:
Links:
Sources:

  
flag of Mali   

Sectional Chart

Flight Planning
at skyvector.com

Satellite Image

Google Maps Satellite view

 

Copyright © 2004-2018 Karl L. Swartz. All rights reserved.
The Great Circle Mapper name and logo are trademarks of the Great Circle Mapper.
All other trademarks mentioned herein belong to their respective owners.
Please see credits for attibutions and further copyright information.

  Follow gcmap on Facebook Follow gcmap on Twitter Follow gcmap on Google+ GCmap on LinkedIn

hCard Microformat

Geo Microformat